Huvudsida
METAR-TAF:

METAR-TAF

Flygplatser :

Kuwait, Kuwait

Kuwaits internationella flygplats

latitud: 29-13N, longitud: 047-59E, höjd: 55 m

Aktuellt väderrapport

Denna rapport gjordes för 1 timme och 5 minuter sedan, klockan 00:00 UTC
Vind 5 kt från nord/nordväst
Temperatur 25°C
Fuktighet 26%
Tryck 1012 hPa
Sikt 10 km eller mer
Inga moln under 1 500 m eller inga cumulonimbus

METAR: OKBK 250000Z 34005KT CAVOK 25/04 Q1012 NOSIG

Tid: 04:05 (01:05 UTC)

Väderprognos

Denna rapport gjordes för 2 timmar och 20 minuter sedan, klockan 22:45 UTC
Prognos gäller från 25 kl. 00 UTC till 26 kl. 06 UTC
Vind 8 kt från väst i byarna ända upp till 18 kt
Sikt: 6000 m
Spridda moln på en höjd av 4000 ft
Blir
från 25 kl. 03 UTC till 25 kl. 05 UTC
Vind 12 kt från nord/nordost

TAF: OKBK 242245Z 2500/2606 26008G18KT 6000 SCT040 BECMG 2503/2505 02012KT

Aktuella väderrapporter och prognoser från 4000 flygplatser (METAR- och TAF-rapporter).

De tillgängliga stationerna syns som gula och röda prickar på kartan.

För musen över prickarna för att se namnen på stationerna.

Klicka sedan för att få väderrapporter och prognoser.

För att ändra kartan: Klicka på de gröna knapparna med ett svart kors på för att zooma in; den gröna knappen med ett streck på för att zooma ut; eller på de gröna pilarna för angränsande kartor.


METAR-TAF: